sensor_id;sensor_type;location;lat;lon;timestamp;P1;durP1;ratioP1;P2;durP2;ratioP2
31764;SDS011;18338;53.240;8.798;2023-07-20T00:00:02;1.83;;;1.65;;
31764;SDS011;18338;53.240;8.798;2023-07-20T00:02:30;1.80;;;1.70;;
31764;SDS011;18338;53.240;8.798;2023-07-20T00:04:56;3.20;;;1.70;;
31764;SDS011;18338;53.240;8.798;2023-07-20T00:07:23;2.38;;;1.90;;
31764;SDS011;18338;53.240;8.798;2023-07-20T00:09:51;2.70;;;2.15;;
31764;SDS011;18338;53.240;8.798;2023-07-20T00:12:17;2.53;;;2.33;;
31764;SDS011;18338;53.240;8.798;2023-07-20T00:14:44;4.32;;;2.25;;
31764;SDS011;18338;53.240;8.798;2023-07-20T00:17:11;2.60;;;2.40;;
31764;SDS011;18338;53.240;8.798;2023-07-20T00:19:38;2.40;;;2.20;;
31764;SDS011;18338;53.240;8.798;2023-07-20T00:22:04;3.17;;;2.33;;
31764;SDS011;18338;53.240;8.798;2023-07-20T00:24:31;2.47;;;2.22;;
31764;SDS011;18338;53.240;8.798;2023-07-20T00:26:58;1.88;;;1.77;;
31764;SDS011;18338;53.240;8.798;2023-07-20T00:29:27;2.03;;;1.60;;
31764;SDS011;18338;53.240;8.798;2023-07-20T00:31:53;1.90;;;1.67;;
31764;SDS011;18338;53.240;8.798;2023-07-20T00:34:20;1.50;;;1.40;;
31764;SDS011;18338;53.240;8.798;2023-07-20T00:36:47;1.70;;;1.60;;
31764;SDS011;18338;53.240;8.798;2023-07-20T00:39:15;1.52;;;1.42;;
31764;SDS011;18338;53.240;8.798;2023-07-20T00:41:43;2.25;;;2.00;;
31764;SDS011;18338;53.240;8.798;2023-07-20T00:44:10;2.17;;;1.95;;
31764;SDS011;18338;53.240;8.798;2023-07-20T00:46:37;3.13;;;1.80;;
31764;SDS011;18338;53.240;8.798;2023-07-20T00:49:04;2.63;;;1.85;;
31764;SDS011;18338;53.240;8.798;2023-07-20T00:51:32;3.78;;;2.30;;
31764;SDS011;18338;53.240;8.798;2023-07-20T00:54:00;2.55;;;2.10;;
31764;SDS011;18338;53.240;8.798;2023-07-20T00:56:26;2.75;;;2.55;;
31764;SDS011;18338;53.240;8.798;2023-07-20T00:58:53;2.47;;;2.28;;
31764;SDS011;18338;53.240;8.798;2023-07-20T01:01:20;3.53;;;2.60;;
31764;SDS011;18338;53.240;8.798;2023-07-20T01:03:48;3.45;;;3.15;;
31764;SDS011;18338;53.240;8.798;2023-07-20T01:06:24;4.32;;;3.58;;
31764;SDS011;18338;53.240;8.798;2023-07-20T01:11:38;3.40;;;3.20;;
31764;SDS011;18338;53.240;8.798;2023-07-20T01:14:16;3.20;;;2.92;;
31764;SDS011;18338;53.240;8.798;2023-07-20T01:16:43;3.55;;;3.25;;
31764;SDS011;18338;53.240;8.798;2023-07-20T01:19:12;3.63;;;3.33;;
31764;SDS011;18338;53.240;8.798;2023-07-20T01:24:20;3.30;;;3.10;;
31764;SDS011;18338;53.240;8.798;2023-07-20T01:32:51;3.65;;;3.13;;
31764;SDS011;18338;53.240;8.798;2023-07-20T01:37:52;4.03;;;3.25;;
31764;SDS011;18338;53.240;8.798;2023-07-20T01:40:20;3.65;;;3.40;;
31764;SDS011;18338;53.240;8.798;2023-07-20T01:42:48;3.90;;;3.60;;
31764;SDS011;18338;53.240;8.798;2023-07-20T01:45:15;3.85;;;3.47;;
31764;SDS011;18338;53.240;8.798;2023-07-20T01:47:41;4.18;;;3.45;;
31764;SDS011;18338;53.240;8.798;2023-07-20T01:50:09;3.20;;;2.92;;
31764;SDS011;18338;53.240;8.798;2023-07-20T01:52:35;3.67;;;3.22;;
31764;SDS011;18338;53.240;8.798;2023-07-20T01:55:02;3.80;;;3.50;;
31764;SDS011;18338;53.240;8.798;2023-07-20T01:57:30;3.42;;;3.13;;
31764;SDS011;18338;53.240;8.798;2023-07-20T01:59:57;5.32;;;2.78;;
31764;SDS011;18338;53.240;8.798;2023-07-20T02:02:25;3.08;;;2.88;;
31764;SDS011;18338;53.240;8.798;2023-07-20T02:04:53;2.90;;;2.70;;
31764;SDS011;18338;53.240;8.798;2023-07-20T02:07:20;2.80;;;2.60;;
31764;SDS011;18338;53.240;8.798;2023-07-20T02:09:47;4.38;;;2.55;;
31764;SDS011;18338;53.240;8.798;2023-07-20T02:12:14;3.50;;;2.40;;
31764;SDS011;18338;53.240;8.798;2023-07-20T02:14:40;3.10;;;2.63;;
31764;SDS011;18338;53.240;8.798;2023-07-20T02:17:08;2.97;;;2.78;;
31764;SDS011;18338;53.240;8.798;2023-07-20T02:19:36;2.70;;;2.50;;
31764;SDS011;18338;53.240;8.798;2023-07-20T02:22:03;3.13;;;2.53;;
31764;SDS011;18338;53.240;8.798;2023-07-20T02:24:31;2.80;;;2.60;;
31764;SDS011;18338;53.240;8.798;2023-07-20T02:26:58;2.78;;;2.58;;
31764;SDS011;18338;53.240;8.798;2023-07-20T02:29:25;2.80;;;2.40;;
31764;SDS011;18338;53.240;8.798;2023-07-20T02:31:52;2.90;;;2.60;;
31764;SDS011;18338;53.240;8.798;2023-07-20T02:34:18;2.63;;;2.42;;
31764;SDS011;18338;53.240;8.798;2023-07-20T02:36:45;3.15;;;2.65;;
31764;SDS011;18338;53.240;8.798;2023-07-20T02:39:12;2.50;;;2.30;;
31764;SDS011;18338;53.240;8.798;2023-07-20T02:41:39;2.67;;;2.47;;
31764;SDS011;18338;53.240;8.798;2023-07-20T02:44:05;3.13;;;2.70;;
31764;SDS011;18338;53.240;8.798;2023-07-20T02:46:32;2.70;;;2.50;;
31764;SDS011;18338;53.240;8.798;2023-07-20T02:48:58;3.83;;;3.30;;
31764;SDS011;18338;53.240;8.798;2023-07-20T02:51:25;5.72;;;3.42;;
31764;SDS011;18338;53.240;8.798;2023-07-20T02:53:52;3.45;;;2.90;;
31764;SDS011;18338;53.240;8.798;2023-07-20T02:56:18;5.00;;;3.53;;
31764;SDS011;18338;53.240;8.798;2023-07-20T02:58:46;3.65;;;3.33;;
31764;SDS011;18338;53.240;8.798;2023-07-20T03:01:12;5.18;;;3.97;;
31764;SDS011;18338;53.240;8.798;2023-07-20T03:03:41;4.22;;;3.83;;
31764;SDS011;18338;53.240;8.798;2023-07-20T03:06:13;4.43;;;3.88;;
31764;SDS011;18338;53.240;8.798;2023-07-20T03:08:41;4.50;;;3.90;;
31764;SDS011;18338;53.240;8.798;2023-07-20T03:11:11;4.93;;;4.47;;
31764;SDS011;18338;53.240;8.798;2023-07-20T03:13:38;4.97;;;4.57;;
31764;SDS011;18338;53.240;8.798;2023-07-20T03:16:04;4.93;;;4.50;;
31764;SDS011;18338;53.240;8.798;2023-07-20T03:18:31;7.45;;;5.28;;
31764;SDS011;18338;53.240;8.798;2023-07-20T03:20:58;5.53;;;5.03;;
31764;SDS011;18338;53.240;8.798;2023-07-20T03:23:24;4.68;;;4.28;;
31764;SDS011;18338;53.240;8.798;2023-07-20T03:25:52;5.18;;;4.78;;
31764;SDS011;18338;53.240;8.798;2023-07-20T03:28:21;5.15;;;4.75;;
31764;SDS011;18338;53.240;8.798;2023-07-20T03:30:57;5.40;;;4.90;;
31764;SDS011;18338;53.240;8.798;2023-07-20T03:33:30;5.20;;;4.70;;
31764;SDS011;18338;53.240;8.798;2023-07-20T03:35:57;5.38;;;4.65;;
31764;SDS011;18338;53.240;8.798;2023-07-20T03:38:24;5.47;;;4.95;;
31764;SDS011;18338;53.240;8.798;2023-07-20T03:40:52;5.25;;;4.80;;
31764;SDS011;18338;53.240;8.798;2023-07-20T03:43:21;5.25;;;4.85;;
31764;SDS011;18338;53.240;8.798;2023-07-20T03:45:49;5.30;;;4.80;;
31764;SDS011;18338;53.240;8.798;2023-07-20T03:48:16;5.05;;;4.45;;
31764;SDS011;18338;53.240;8.798;2023-07-20T03:50:48;5.70;;;4.70;;
31764;SDS011;18338;53.240;8.798;2023-07-20T03:53:15;6.03;;;4.68;;
31764;SDS011;18338;53.240;8.798;2023-07-20T03:55:49;5.32;;;4.70;;
31764;SDS011;18338;53.240;8.798;2023-07-20T03:58:17;5.35;;;4.85;;
31764;SDS011;18338;53.240;8.798;2023-07-20T04:00:46;4.95;;;4.53;;
31764;SDS011;18338;53.240;8.798;2023-07-20T04:03:13;4.93;;;4.53;;
31764;SDS011;18338;53.240;8.798;2023-07-20T04:05:40;4.68;;;4.28;;
31764;SDS011;18338;53.240;8.798;2023-07-20T04:08:08;5.10;;;4.68;;
31764;SDS011;18338;53.240;8.798;2023-07-20T04:10:37;4.75;;;4.35;;
31764;SDS011;18338;53.240;8.798;2023-07-20T04:13:05;4.50;;;4.18;;
31764;SDS011;18338;53.240;8.798;2023-07-20T04:15:32;4.93;;;4.40;;
31764;SDS011;18338;53.240;8.798;2023-07-20T04:17:58;4.85;;;4.38;;
31764;SDS011;18338;53.240;8.798;2023-07-20T04:20:25;4.90;;;4.28;;
31764;SDS011;18338;53.240;8.798;2023-07-20T04:22:52;5.40;;;4.63;;
31764;SDS011;18338;53.240;8.798;2023-07-20T04:25:19;4.57;;;4.18;;
31764;SDS011;18338;53.240;8.798;2023-07-20T04:27:46;4.50;;;4.10;;
31764;SDS011;18338;53.240;8.798;2023-07-20T04:30:13;4.68;;;4.20;;
31764;SDS011;18338;53.240;8.798;2023-07-20T04:32:45;5.93;;;4.50;;
31764;SDS011;18338;53.240;8.798;2023-07-20T04:35:56;4.88;;;4.35;;
31764;SDS011;18338;53.240;8.798;2023-07-20T04:38:13;4.53;;;4.13;;
31764;SDS011;18338;53.240;8.798;2023-07-20T04:40:44;5.22;;;4.75;;
31764;SDS011;18338;53.240;8.798;2023-07-20T04:43:12;5.28;;;4.78;;
31764;SDS011;18338;53.240;8.798;2023-07-20T04:45:39;5.28;;;4.70;;
31764;SDS011;18338;53.240;8.798;2023-07-20T04:48:08;5.50;;;5.07;;
31764;SDS011;18338;53.240;8.798;2023-07-20T04:50:42;7.10;;;5.63;;
31764;SDS011;18338;53.240;8.798;2023-07-20T04:53:11;5.85;;;5.35;;
31764;SDS011;18338;53.240;8.798;2023-07-20T04:55:39;6.38;;;5.75;;
31764;SDS011;18338;53.240;8.798;2023-07-20T04:58:06;7.10;;;5.45;;
31764;SDS011;18338;53.240;8.798;2023-07-20T05:00:33;6.13;;;5.55;;
31764;SDS011;18338;53.240;8.798;2023-07-20T05:03:00;6.10;;;5.50;;
31764;SDS011;18338;53.240;8.798;2023-07-20T05:05:27;5.93;;;5.32;;
31764;SDS011;18338;53.240;8.798;2023-07-20T05:07:54;5.38;;;4.88;;
31764;SDS011;18338;53.240;8.798;2023-07-20T05:10:20;6.05;;;5.45;;
31764;SDS011;18338;53.240;8.798;2023-07-20T05:12:47;5.55;;;5.10;;
31764;SDS011;18338;53.240;8.798;2023-07-20T05:15:14;7.18;;;5.70;;
31764;SDS011;18338;53.240;8.798;2023-07-20T05:17:40;5.70;;;5.20;;
31764;SDS011;18338;53.240;8.798;2023-07-20T05:20:07;6.15;;;5.43;;
31764;SDS011;18338;53.240;8.798;2023-07-20T05:22:38;6.07;;;4.95;;
31764;SDS011;18338;53.240;8.798;2023-07-20T05:25:08;5.55;;;5.05;;
31764;SDS011;18338;53.240;8.798;2023-07-20T05:27:36;5.30;;;4.80;;
31764;SDS011;18338;53.240;8.798;2023-07-20T05:30:04;4.70;;;4.00;;
31764;SDS011;18338;53.240;8.798;2023-07-20T05:32:31;6.07;;;4.72;;
31764;SDS011;18338;53.240;8.798;2023-07-20T05:34:58;5.40;;;3.85;;
31764;SDS011;18338;53.240;8.798;2023-07-20T05:37:25;3.85;;;3.42;;
31764;SDS011;18338;53.240;8.798;2023-07-20T05:39:51;3.63;;;3.17;;
31764;SDS011;18338;53.240;8.798;2023-07-20T05:42:18;4.32;;;2.88;;
31764;SDS011;18338;53.240;8.798;2023-07-20T05:44:45;3.10;;;2.55;;
31764;SDS011;18338;53.240;8.798;2023-07-20T05:47:13;2.53;;;2.33;;
31764;SDS011;18338;53.240;8.798;2023-07-20T05:49:40;2.40;;;2.30;;
31764;SDS011;18338;53.240;8.798;2023-07-20T05:52:06;3.15;;;1.98;;
31764;SDS011;18338;53.240;8.798;2023-07-20T05:54:33;1.65;;;1.38;;
31764;SDS011;18338;53.240;8.798;2023-07-20T05:57:00;2.80;;;1.08;;
31764;SDS011;18338;53.240;8.798;2023-07-20T05:59:27;3.67;;;1.25;;
31764;SDS011;18338;53.240;8.798;2023-07-20T06:01:57;2.22;;;0.93;;
31764;SDS011;18338;53.240;8.798;2023-07-20T06:04:24;1.88;;;0.90;;
31764;SDS011;18338;53.240;8.798;2023-07-20T06:06:51;0.80;;;0.80;;
31764;SDS011;18338;53.240;8.798;2023-07-20T06:09:17;1.05;;;0.70;;
31764;SDS011;18338;53.240;8.798;2023-07-20T06:11:45;1.05;;;0.82;;
31764;SDS011;18338;53.240;8.798;2023-07-20T06:14:11;3.10;;;1.13;;
31764;SDS011;18338;53.240;8.798;2023-07-20T06:16:38;2.92;;;1.23;;
31764;SDS011;18338;53.240;8.798;2023-07-20T06:19:05;2.88;;;1.15;;
31764;SDS011;18338;53.240;8.798;2023-07-20T06:21:32;2.35;;;1.10;;
31764;SDS011;18338;53.240;8.798;2023-07-20T06:23:58;2.60;;;1.25;;
31764;SDS011;18338;53.240;8.798;2023-07-20T06:26:25;1.13;;;0.95;;
31764;SDS011;18338;53.240;8.798;2023-07-20T06:28:52;2.63;;;1.02;;
31764;SDS011;18338;53.240;8.798;2023-07-20T06:31:19;1.60;;;0.90;;
31764;SDS011;18338;53.240;8.798;2023-07-20T06:33:46;1.33;;;1.05;;
31764;SDS011;18338;53.240;8.798;2023-07-20T06:36:12;1.90;;;1.20;;
31764;SDS011;18338;53.240;8.798;2023-07-20T06:38:39;2.25;;;0.98;;
31764;SDS011;18338;53.240;8.798;2023-07-20T06:41:06;1.52;;;0.98;;
31764;SDS011;18338;53.240;8.798;2023-07-20T06:43:36;2.92;;;1.00;;
31764;SDS011;18338;53.240;8.798;2023-07-20T06:46:05;2.70;;;1.10;;
31764;SDS011;18338;53.240;8.798;2023-07-20T06:48:32;2.17;;;1.20;;
31764;SDS011;18338;53.240;8.798;2023-07-20T06:51:19;2.42;;;0.85;;
31764;SDS011;18338;53.240;8.798;2023-07-20T06:53:47;1.48;;;0.70;;
31764;SDS011;18338;53.240;8.798;2023-07-20T06:56:13;1.52;;;0.80;;
31764;SDS011;18338;53.240;8.798;2023-07-20T06:58:40;1.30;;;0.68;;
31764;SDS011;18338;53.240;8.798;2023-07-20T07:01:07;1.67;;;0.70;;
31764;SDS011;18338;53.240;8.798;2023-07-20T07:03:34;0.80;;;0.50;;
31764;SDS011;18338;53.240;8.798;2023-07-20T07:06:02;1.83;;;0.80;;
31764;SDS011;18338;53.240;8.798;2023-07-20T07:08:30;1.17;;;0.80;;
31764;SDS011;18338;53.240;8.798;2023-07-20T07:10:56;1.92;;;0.90;;
31764;SDS011;18338;53.240;8.798;2023-07-20T07:13:23;3.28;;;0.60;;
31764;SDS011;18338;53.240;8.798;2023-07-20T07:15:51;1.17;;;0.70;;
31764;SDS011;18338;53.240;8.798;2023-07-20T07:18:18;3.10;;;0.60;;
31764;SDS011;18338;53.240;8.798;2023-07-20T07:20:50;1.52;;;1.00;;
31764;SDS011;18338;53.240;8.798;2023-07-20T07:23:18;2.70;;;0.77;;
31764;SDS011;18338;53.240;8.798;2023-07-20T07:25:45;2.55;;;0.65;;
31764;SDS011;18338;53.240;8.798;2023-07-20T07:28:12;0.98;;;0.75;;
31764;SDS011;18338;53.240;8.798;2023-07-20T07:30:39;1.08;;;0.75;;
31764;SDS011;18338;53.240;8.798;2023-07-20T07:33:06;2.45;;;0.80;;
31764;SDS011;18338;53.240;8.798;2023-07-20T07:38:00;4.88;;;1.13;;
31764;SDS011;18338;53.240;8.798;2023-07-20T07:40:47;1.40;;;0.80;;
31764;SDS011;18338;53.240;8.798;2023-07-20T07:43:14;4.07;;;1.60;;
31764;SDS011;18338;53.240;8.798;2023-07-20T07:45:40;2.97;;;1.23;;
31764;SDS011;18338;53.240;8.798;2023-07-20T07:48:07;3.28;;;0.88;;
31764;SDS011;18338;53.240;8.798;2023-07-20T07:50:34;4.68;;;1.27;;
31764;SDS011;18338;53.240;8.798;2023-07-20T07:53:01;2.40;;;1.13;;
31764;SDS011;18338;53.240;8.798;2023-07-20T07:55:29;2.33;;;1.10;;
31764;SDS011;18338;53.240;8.798;2023-07-20T07:57:55;6.40;;;1.33;;
31764;SDS011;18338;53.240;8.798;2023-07-20T08:00:22;3.22;;;1.10;;
31764;SDS011;18338;53.240;8.798;2023-07-20T08:02:50;1.13;;;1.02;;
31764;SDS011;18338;53.240;8.798;2023-07-20T08:05:17;1.95;;;1.08;;
31764;SDS011;18338;53.240;8.798;2023-07-20T08:07:44;2.92;;;1.48;;
31764;SDS011;18338;53.240;8.798;2023-07-20T08:10:11;2.22;;;1.33;;
31764;SDS011;18338;53.240;8.798;2023-07-20T08:12:38;4.93;;;1.58;;
31764;SDS011;18338;53.240;8.798;2023-07-20T08:15:05;3.10;;;1.30;;
31764;SDS011;18338;53.240;8.798;2023-07-20T08:17:32;1.85;;;1.33;;
31764;SDS011;18338;53.240;8.798;2023-07-20T08:19:59;2.67;;;1.25;;
31764;SDS011;18338;53.240;8.798;2023-07-20T08:22:26;2.83;;;1.25;;
31764;SDS011;18338;53.240;8.798;2023-07-20T08:24:53;2.75;;;1.13;;
31764;SDS011;18338;53.240;8.798;2023-07-20T08:27:19;2.00;;;1.10;;
31764;SDS011;18338;53.240;8.798;2023-07-20T08:29:46;3.17;;;1.13;;
31764;SDS011;18338;53.240;8.798;2023-07-20T08:32:13;2.08;;;1.00;;
31764;SDS011;18338;53.240;8.798;2023-07-20T08:34:41;1.98;;;1.13;;
31764;SDS011;18338;53.240;8.798;2023-07-20T08:37:09;1.70;;;0.90;;
31764;SDS011;18338;53.240;8.798;2023-07-20T08:39:36;2.22;;;1.08;;
31764;SDS011;18338;53.240;8.798;2023-07-20T08:42:03;2.45;;;1.02;;
31764;SDS011;18338;53.240;8.798;2023-07-20T08:44:32;2.15;;;1.20;;
31764;SDS011;18338;53.240;8.798;2023-07-20T08:47:00;3.45;;;1.10;;
31764;SDS011;18338;53.240;8.798;2023-07-20T08:49:32;4.10;;;1.17;;
31764;SDS011;18338;53.240;8.798;2023-07-20T08:52:00;2.00;;;0.80;;
31764;SDS011;18338;53.240;8.798;2023-07-20T08:54:29;2.35;;;0.90;;
31764;SDS011;18338;53.240;8.798;2023-07-20T08:57:02;1.33;;;0.70;;
31764;SDS011;18338;53.240;8.798;2023-07-20T08:59:30;1.30;;;0.80;;
31764;SDS011;18338;53.240;8.798;2023-07-20T09:01:58;1.95;;;0.90;;
31764;SDS011;18338;53.240;8.798;2023-07-20T09:04:26;2.00;;;1.30;;
31764;SDS011;18338;53.240;8.798;2023-07-20T09:06:53;3.13;;;1.27;;
31764;SDS011;18338;53.240;8.798;2023-07-20T09:09:21;2.25;;;1.20;;
31764;SDS011;18338;53.240;8.798;2023-07-20T09:11:48;3.97;;;1.10;;
31764;SDS011;18338;53.240;8.798;2023-07-20T09:14:16;1.30;;;0.90;;
31764;SDS011;18338;53.240;8.798;2023-07-20T09:16:53;3.72;;;1.00;;
31764;SDS011;18338;53.240;8.798;2023-07-20T09:19:21;2.00;;;1.00;;
31764;SDS011;18338;53.240;8.798;2023-07-20T09:21:48;1.92;;;1.00;;
31764;SDS011;18338;53.240;8.798;2023-07-20T09:24:17;3.17;;;1.20;;
31764;SDS011;18338;53.240;8.798;2023-07-20T09:26:45;3.20;;;1.30;;
31764;SDS011;18338;53.240;8.798;2023-07-20T09:29:14;2.67;;;1.42;;
31764;SDS011;18338;53.240;8.798;2023-07-20T09:31:58;3.30;;;1.08;;
31764;SDS011;18338;53.240;8.798;2023-07-20T09:34:49;2.38;;;0.90;;
31764;SDS011;18338;53.240;8.798;2023-07-20T09:37:21;2.33;;;1.00;;
31764;SDS011;18338;53.240;8.798;2023-07-20T09:39:52;2.35;;;0.85;;
31764;SDS011;18338;53.240;8.798;2023-07-20T09:42:22;1.15;;;0.90;;
31764;SDS011;18338;53.240;8.798;2023-07-20T09:44:54;3.25;;;1.55;;
31764;SDS011;18338;53.240;8.798;2023-07-20T09:47:22;2.75;;;0.90;;
31764;SDS011;18338;53.240;8.798;2023-07-20T09:49:57;1.75;;;0.85;;
31764;SDS011;18338;53.240;8.798;2023-07-20T09:52:29;2.00;;;1.00;;
31764;SDS011;18338;53.240;8.798;2023-07-20T09:54:58;2.88;;;0.98;;
31764;SDS011;18338;53.240;8.798;2023-07-20T09:57:27;3.15;;;1.00;;
31764;SDS011;18338;53.240;8.798;2023-07-20T09:59:54;2.35;;;1.05;;
31764;SDS011;18338;53.240;8.798;2023-07-20T10:02:23;2.47;;;1.10;;
31764;SDS011;18338;53.240;8.798;2023-07-20T10:04:57;3.25;;;1.13;;
31764;SDS011;18338;53.240;8.798;2023-07-20T10:07:28;2.83;;;1.23;;
31764;SDS011;18338;53.240;8.798;2023-07-20T10:09:56;2.42;;;1.30;;
31764;SDS011;18338;53.240;8.798;2023-07-20T10:12:27;1.55;;;0.80;;
31764;SDS011;18338;53.240;8.798;2023-07-20T10:15:01;1.88;;;0.63;;
31764;SDS011;18338;53.240;8.798;2023-07-20T10:17:49;2.70;;;0.75;;
31764;SDS011;18338;53.240;8.798;2023-07-20T10:20:24;2.20;;;0.70;;
31764;SDS011;18338;53.240;8.798;2023-07-20T10:22:53;2.45;;;0.80;;
31764;SDS011;18338;53.240;8.798;2023-07-20T10:25:23;1.00;;;0.60;;
31764;SDS011;18338;53.240;8.798;2023-07-20T10:27:50;1.77;;;0.57;;
31764;SDS011;18338;53.240;8.798;2023-07-20T10:30:17;2.10;;;0.60;;
31764;SDS011;18338;53.240;8.798;2023-07-20T10:32:45;1.90;;;0.60;;
31764;SDS011;18338;53.240;8.798;2023-07-20T10:35:14;2.15;;;0.90;;
31764;SDS011;18338;53.240;8.798;2023-07-20T10:37:49;1.83;;;0.65;;
31764;SDS011;18338;53.240;8.798;2023-07-20T10:40:30;1.65;;;0.65;;
31764;SDS011;18338;53.240;8.798;2023-07-20T10:43:01;0.93;;;0.60;;
31764;SDS011;18338;53.240;8.798;2023-07-20T10:45:40;0.93;;;0.50;;
31764;SDS011;18338;53.240;8.798;2023-07-20T10:48:15;2.72;;;0.60;;
31764;SDS011;18338;53.240;8.798;2023-07-20T10:50:43;2.00;;;0.68;;
31764;SDS011;18338;53.240;8.798;2023-07-20T10:53:17;2.80;;;0.52;;
31764;SDS011;18338;53.240;8.798;2023-07-20T10:55:45;0.90;;;0.57;;
31764;SDS011;18338;53.240;8.798;2023-07-20T10:58:16;3.88;;;0.85;;
31764;SDS011;18338;53.240;8.798;2023-07-20T11:01:02;2.85;;;0.60;;
31764;SDS011;18338;53.240;8.798;2023-07-20T11:03:31;1.95;;;0.55;;
31764;SDS011;18338;53.240;8.798;2023-07-20T11:08:56;1.58;;;0.63;;
31764;SDS011;18338;53.240;8.798;2023-07-20T11:11:35;0.82;;;0.50;;
31764;SDS011;18338;53.240;8.798;2023-07-20T11:14:07;2.95;;;0.45;;
31764;SDS011;18338;53.240;8.798;2023-07-20T11:16:45;1.92;;;0.60;;
31764;SDS011;18338;53.240;8.798;2023-07-20T11:19:16;1.45;;;0.40;;
31764;SDS011;18338;53.240;8.798;2023-07-20T11:21:51;1.73;;;0.60;;
31764;SDS011;18338;53.240;8.798;2023-07-20T11:24:29;4.25;;;0.55;;
31764;SDS011;18338;53.240;8.798;2023-07-20T11:26:57;1.20;;;0.68;;
31764;SDS011;18338;53.240;8.798;2023-07-20T11:29:24;1.08;;;0.65;;
31764;SDS011;18338;53.240;8.798;2023-07-20T11:31:59;1.98;;;0.70;;
31764;SDS011;18338;53.240;8.798;2023-07-20T11:34:26;1.58;;;0.55;;
31764;SDS011;18338;53.240;8.798;2023-07-20T11:36:56;1.35;;;0.47;;
31764;SDS011;18338;53.240;8.798;2023-07-20T11:39:26;1.58;;;0.60;;
31764;SDS011;18338;53.240;8.798;2023-07-20T11:41:55;2.33;;;0.65;;
31764;SDS011;18338;53.240;8.798;2023-07-20T11:44:23;2.20;;;0.60;;
31764;SDS011;18338;53.240;8.798;2023-07-20T11:49:34;1.25;;;0.50;;
31764;SDS011;18338;53.240;8.798;2023-07-20T11:52:04;2.13;;;0.60;;
31764;SDS011;18338;53.240;8.798;2023-07-20T11:54:35;0.50;;;0.35;;
31764;SDS011;18338;53.240;8.798;2023-07-20T11:57:18;1.52;;;0.50;;
31764;SDS011;18338;53.240;8.798;2023-07-20T12:00:01;1.38;;;0.65;;
31764;SDS011;18338;53.240;8.798;2023-07-20T12:02:35;1.42;;;0.52;;
31764;SDS011;18338;53.240;8.798;2023-07-20T12:05:03;1.73;;;0.40;;
31764;SDS011;18338;53.240;8.798;2023-07-20T12:07:34;3.72;;;0.55;;
31764;SDS011;18338;53.240;8.798;2023-07-20T12:10:07;2.95;;;0.65;;
31764;SDS011;18338;53.240;8.798;2023-07-20T12:12:38;1.60;;;0.57;;
31764;SDS011;18338;53.240;8.798;2023-07-20T12:17:46;1.40;;;0.60;;
31764;SDS011;18338;53.240;8.798;2023-07-20T12:23:01;0.77;;;0.40;;
31764;SDS011;18338;53.240;8.798;2023-07-20T12:25:38;2.00;;;0.63;;
31764;SDS011;18338;53.240;8.798;2023-07-20T12:28:10;1.67;;;0.55;;
31764;SDS011;18338;53.240;8.798;2023-07-20T12:30:39;1.23;;;0.50;;
31764;SDS011;18338;53.240;8.798;2023-07-20T12:33:07;1.90;;;0.70;;
31764;SDS011;18338;53.240;8.798;2023-07-20T12:35:34;1.33;;;0.65;;
31764;SDS011;18338;53.240;8.798;2023-07-20T12:38:01;2.78;;;0.47;;
31764;SDS011;18338;53.240;8.798;2023-07-20T12:40:28;1.63;;;0.50;;
31764;SDS011;18338;53.240;8.798;2023-07-20T12:42:55;1.77;;;0.60;;
31764;SDS011;18338;53.240;8.798;2023-07-20T12:45:23;2.88;;;0.75;;
31764;SDS011;18338;53.240;8.798;2023-07-20T12:47:50;1.88;;;0.60;;
31764;SDS011;18338;53.240;8.798;2023-07-20T12:50:17;1.77;;;0.65;;
31764;SDS011;18338;53.240;8.798;2023-07-20T12:52:44;1.60;;;0.43;;
31764;SDS011;18338;53.240;8.798;2023-07-20T12:55:10;2.17;;;0.57;;
31764;SDS011;18338;53.240;8.798;2023-07-20T12:57:38;3.10;;;0.57;;
31764;SDS011;18338;53.240;8.798;2023-07-20T13:00:05;2.85;;;0.70;;
31764;SDS011;18338;53.240;8.798;2023-07-20T13:02:37;2.40;;;0.57;;
31764;SDS011;18338;53.240;8.798;2023-07-20T13:05:05;2.20;;;0.60;;
31764;SDS011;18338;53.240;8.798;2023-07-20T13:07:33;2.17;;;0.60;;
31764;SDS011;18338;53.240;8.798;2023-07-20T13:10:04;2.78;;;0.55;;
31764;SDS011;18338;53.240;8.798;2023-07-20T13:12:32;3.38;;;0.70;;
31764;SDS011;18338;53.240;8.798;2023-07-20T13:15:01;1.88;;;0.50;;
31764;SDS011;18338;53.240;8.798;2023-07-20T13:17:32;2.40;;;0.60;;
31764;SDS011;18338;53.240;8.798;2023-07-20T13:20:03;2.05;;;0.70;;
31764;SDS011;18338;53.240;8.798;2023-07-20T13:22:37;2.78;;;0.88;;
31764;SDS011;18338;53.240;8.798;2023-07-20T13:25:05;1.48;;;0.50;;
31764;SDS011;18338;53.240;8.798;2023-07-20T13:27:32;1.90;;;0.52;;
31764;SDS011;18338;53.240;8.798;2023-07-20T13:30:00;2.55;;;0.40;;
31764;SDS011;18338;53.240;8.798;2023-07-20T13:32:29;1.65;;;0.50;;
31764;SDS011;18338;53.240;8.798;2023-07-20T13:34:59;1.65;;;0.65;;
31764;SDS011;18338;53.240;8.798;2023-07-20T13:37:27;0.90;;;0.50;;
31764;SDS011;18338;53.240;8.798;2023-07-20T13:39:54;2.22;;;0.63;;
31764;SDS011;18338;53.240;8.798;2023-07-20T13:42:22;1.30;;;0.50;;
31764;SDS011;18338;53.240;8.798;2023-07-20T13:44:49;1.75;;;0.73;;
31764;SDS011;18338;53.240;8.798;2023-07-20T13:47:16;1.67;;;0.40;;
31764;SDS011;18338;53.240;8.798;2023-07-20T13:49:45;2.22;;;0.57;;
31764;SDS011;18338;53.240;8.798;2023-07-20T13:52:13;2.88;;;0.75;;
31764;SDS011;18338;53.240;8.798;2023-07-20T13:54:44;1.90;;;0.45;;
31764;SDS011;18338;53.240;8.798;2023-07-20T13:57:16;2.85;;;0.68;;
31764;SDS011;18338;53.240;8.798;2023-07-20T13:59:43;4.15;;;0.73;;
31764;SDS011;18338;53.240;8.798;2023-07-20T14:02:11;1.77;;;0.50;;
31764;SDS011;18338;53.240;8.798;2023-07-20T14:04:41;1.02;;;0.50;;
31764;SDS011;18338;53.240;8.798;2023-07-20T14:07:08;2.03;;;0.70;;
31764;SDS011;18338;53.240;8.798;2023-07-20T14:09:35;2.00;;;0.70;;
31764;SDS011;18338;53.240;8.798;2023-07-20T14:12:03;1.92;;;1.00;;
31764;SDS011;18338;53.240;8.798;2023-07-20T14:14:33;2.92;;;0.80;;
31764;SDS011;18338;53.240;8.798;2023-07-20T14:16:59;2.63;;;0.70;;
31764;SDS011;18338;53.240;8.798;2023-07-20T14:19:26;2.67;;;0.90;;
31764;SDS011;18338;53.240;8.798;2023-07-20T14:21:53;2.92;;;0.88;;
31764;SDS011;18338;53.240;8.798;2023-07-20T14:24:21;1.33;;;0.50;;
31764;SDS011;18338;53.240;8.798;2023-07-20T14:26:48;1.77;;;0.60;;
31764;SDS011;18338;53.240;8.798;2023-07-20T14:29:17;2.75;;;0.70;;
31764;SDS011;18338;53.240;8.798;2023-07-20T14:31:45;2.40;;;0.60;;
31764;SDS011;18338;53.240;8.798;2023-07-20T14:34:15;1.35;;;0.60;;
31764;SDS011;18338;53.240;8.798;2023-07-20T14:36:42;2.03;;;0.60;;
31764;SDS011;18338;53.240;8.798;2023-07-20T14:39:09;2.55;;;0.57;;
31764;SDS011;18338;53.240;8.798;2023-07-20T14:41:36;2.17;;;0.68;;
31764;SDS011;18338;53.240;8.798;2023-07-20T14:44:03;1.88;;;0.80;;
31764;SDS011;18338;53.240;8.798;2023-07-20T14:46:31;2.58;;;0.50;;
31764;SDS011;18338;53.240;8.798;2023-07-20T14:48:58;1.98;;;0.60;;
31764;SDS011;18338;53.240;8.798;2023-07-20T14:51:25;1.40;;;0.70;;
31764;SDS011;18338;53.240;8.798;2023-07-20T14:54:01;1.05;;;0.50;;
31764;SDS011;18338;53.240;8.798;2023-07-20T14:56:28;1.38;;;0.55;;
31764;SDS011;18338;53.240;8.798;2023-07-20T14:58:55;2.10;;;0.70;;
31764;SDS011;18338;53.240;8.798;2023-07-20T15:01:24;1.58;;;0.75;;
31764;SDS011;18338;53.240;8.798;2023-07-20T15:03:51;3.13;;;0.70;;
31764;SDS011;18338;53.240;8.798;2023-07-20T15:06:23;1.90;;;0.68;;
31764;SDS011;18338;53.240;8.798;2023-07-20T15:08:50;1.75;;;0.90;;
31764;SDS011;18338;53.240;8.798;2023-07-20T15:11:17;1.80;;;0.73;;
31764;SDS011;18338;53.240;8.798;2023-07-20T15:13:44;2.35;;;0.50;;
31764;SDS011;18338;53.240;8.798;2023-07-20T15:16:11;2.85;;;0.70;;
31764;SDS011;18338;53.240;8.798;2023-07-20T15:18:38;3.72;;;0.73;;
31764;SDS011;18338;53.240;8.798;2023-07-20T15:21:13;3.33;;;0.65;;
31764;SDS011;18338;53.240;8.798;2023-07-20T15:23:41;2.45;;;0.60;;